Flight Track Log - Related Links

Times and Time Zones

All times are in EDT time to prevent confusion due to time zone crossing. See the N105LU flight status page for this flight to view local times or setup timezone preferences in your user account.

Time Position Orientation Groundspeed Altitude Reporting Facility
EDT Latitude Longitude Course Direction KTS MPH feet Rate Location/Type
Fri 10:35:29 AM 25.9122 -80.1047 185° South 116 133 1,100  Level Miami Center
Fri 10:36:17 AM 25.8872 -80.1072 185° South 124 143 1,100  Level Miami Center
Fri 10:36:42 AM 25.8700 -80.1086 184° South 125 144 1,100  Level Miami Center
Fri 10:37:19 AM 25.8531 -80.1061 172° South 123 142 1,100 327 Level Miami Center
Fri 10:37:37 AM 25.8389 -80.1061 180° South 118 136 1,400 484 Climbing Miami Center
Fri 10:38:21 AM 25.8231 -80.1056 178° South 112 129 1,600 265 Climbing Miami Center
Fri 10:38:45 AM 25.8053 -80.1058 181° South 110 127 1,700  Climbing Miami Center
Fri 10:39:23 AM 25.7908 -80.1083 189° South 113 130 1,600 -98 Descending Miami Center
Fri 10:39:46 AM 25.7714 -80.1103 185° South 119 137 1,600  Level Miami Center
Fri 10:40:25 AM 25.7519 -80.1144 191° South 115 132 1,600  Level Miami Center
Fri 10:40:41 AM 25.7417 -80.1197 205° Southwest 121 139 1,600  Level Miami Center
Fri 10:41:27 AM 25.7222 -80.1297 205° Southwest 116 133 1,600  Level Miami Center
Fri 10:41:49 AM 25.7114 -80.1358 207° Southwest 117 135 1,600 95 Level Miami Center
Fri 10:42:30 AM 25.6914 -80.1428 197° South 117 135 1,700 98 Climbing Miami Center
Fri 10:42:50 AM 25.6769 -80.1469 195° South 116 133 1,700 97 Level Miami Center
Fri 10:43:32 AM 25.6583 -80.1511 191° South 118 136 1,800 290 Climbing Miami Center
Fri 10:43:52 AM 25.6450 -80.1561 199° South 119 137 2,000 290 Climbing Miami Center
Fri 10:44:34 AM 25.6286 -80.1611 195° South 112 129 2,100 90 Climbing Miami Center
Fri 10:44:59 AM 25.6108 -80.1697 204° Southwest 114 131 2,100  Level Miami Center
Fri 10:45:35 AM 25.5931 -80.1764 199° South 119 137 2,100  Level Miami Center
Fri 10:46:36 AM 25.5592 -80.1914 202° Southwest 122 140 2,100 50 Level Miami Center
Fri 10:47:36 AM 25.5294 -80.2039 201° Southwest 121 139 2,200  Climbing Miami Center
Fri 10:48:37 AM 25.4978 -80.2214 207° Southwest 121 139 2,100 -49 Descending Miami Center
Fri 10:49:38 AM 25.4678 -80.2386 207° Southwest 120 138 2,100  Level Miami Center
Fri 10:50:38 AM 25.4400 -80.2558 209° Southwest 118 136 2,100  Level Miami Center
Fri 10:51:39 AM 25.4103 -80.2756 211° Southwest 119 137 2,100  Level Miami Center
Fri 10:51:49 AM 25.4114 -80.2750 24° Northeast 119 137 2,100  Level Miami Center
Fri 10:52:39 AM 25.3825 -80.2931 209° Southwest 119 137 2,100  Level Miami Center
Fri 10:52:51 AM 25.3761 -80.2964 205° Southwest 119 137 2,100  Level Miami Center
Fri 10:53:40 AM 25.3506 -80.3125 210° Southwest 118 136 2,100  Level Miami Center
Fri 10:53:53 AM 25.3475 -80.3147 213° Southwest 119 137 2,100  Level Miami Center
Fri 10:54:41 AM 25.3250 -80.3300 212° Southwest 117 135 2,100  Level Miami Center
Fri 10:54:56 AM 25.3189 -80.3328 202° Southwest 119 137 2,100  Level Miami Center
Fri 10:55:41 AM 25.2931 -80.3469 206° Southwest 120 138 2,100  Level Miami Center
Fri 10:55:58 AM 25.2900 -80.3494 216° Southwest 119 137 2,100  Level Miami Center
Fri 10:56:42 AM 25.2653 -80.3644 209° Southwest 122 140 2,100  Level Miami Center
Fri 10:57:00 AM 25.2597 -80.3669 202° Southwest 120 138 2,100  Level Miami Center
Fri 10:57:42 AM 25.2333 -80.3817 207° Southwest 118 136 2,100  Level Miami Center
Fri 10:58:02 AM 25.2308 -80.3842 222° Southwest 120 138 2,100  Level Miami Center
Fri 10:58:43 AM 25.2056 -80.3989 208° Southwest 117 135 2,100  Level Miami Center
Fri 10:59:04 AM 25.1953 -80.4042 205° Southwest 119 137 2,100  Level Miami Center
Fri 10:59:44 AM 25.1758 -80.4161 209° Southwest 119 137 2,100  Level Miami Center
Fri 11:00:07 AM 25.1661 -80.4214 206° Southwest 119 137 2,100 500 Level Miami Center
Fri 11:00:44 AM 25.1500 -80.4358 219° Southwest 108 124 2,600 581 Climbing Miami Center
Fri 11:01:09 AM 25.1425 -80.4397 205° Southwest 114 131 2,700 492 Climbing Miami Center
Fri 11:01:45 AM 25.1244 -80.4486 204° Southwest 99 114 3,100 581 Climbing Miami Center
Fri 11:02:11 AM 25.1183 -80.4558 227° Southwest 106 122 3,300 273 Climbing Miami Center
Fri 11:03:13 AM 25.0933 -80.4739 213° Southwest 105 121 3,500 144 Climbing Miami Center
Fri 11:04:16 AM 25.0606 -80.4856 198° South 118 136 3,600 48 Climbing Miami Center
Fri 11:05:18 AM 25.0286 -80.5133 218° Southwest 119 137 3,600 48 Level Miami Center
Fri 11:06:20 AM 25.0042 -80.5397 224° Southwest 120 138 3,700  Climbing Miami Center
Fri 11:07:22 AM 24.9806 -80.5664 226° Southwest 120 138 3,600  Descending Miami Center
Fri 11:08:24 AM 24.9589 -80.5944 230° Southwest 120 138 3,700 48 Climbing Miami Center
Fri 11:09:27 AM 24.9408 -80.6250 237° Southwest 120 138 3,700  Level Miami Center
Fri 11:10:29 AM 24.9192 -80.6639 238° Southwest 121 139 3,700  Level Miami Center
Fri 11:11:31 AM 24.8958 -80.6917 227° Southwest 121 139 3,700 -48 Level Miami Center
Fri 11:12:33 AM 24.8744 -80.7175 228° Southwest 121 139 3,600 -48 Descending Miami Center
Fri 11:13:36 AM 24.8550 -80.7497 236° Southwest 123 142 3,600  Level Miami Center
Fri 11:14:38 AM 24.8333 -80.7856 236° Southwest 122 140 3,600  Level Miami Center
Fri 11:15:40 AM 24.8178 -80.8200 244° Southwest 122 140 3,600  Level Miami Center
Fri 11:16:43 AM 24.8014 -80.8539 242° Southwest 123 142 3,600 -240 Level Miami Center
Fri 11:17:45 AM 24.7883 -80.8883 247° West 123 142 3,100 -435 Descending Miami Center
Fri 11:18:47 AM 24.7758 -80.9203 247° West 121 139 2,700 -19 Descending Miami Center
Fri 11:20:00 AM 24.7581 -80.9592 243° Southwest  Level FlightAware Approximate
Fri 11:27:00 AM 24.7167 -81.0500 234° Southwest  Level FlightAware Approximate
Fri 11:28:00 AM 24.7262 -81.0514 353° North  Level Estimated
Fri 11:29:00 AM 24.7262 -81.0514 234° Southwest  Level Estimated
Fri 11:30:00 AM 24.7262 -81.0514 North  Level Estimated
Fri 11:31:00 AM 24.7262 -81.0514 234° Southwest  Level Estimated
Fri 11:32:00 AM 24.7262 -81.0514 North  Level Estimated
Fri 11:33:00 AM 24.7262 -81.0514 234° Southwest  Level Estimated
Fri 11:34:00 AM 24.7262 -81.0514 North  Level Estimated
Fri 11:35:00 AM 24.7262 -81.0514 234° Southwest  Level Estimated
Fri 11:36:00 AM 24.7262 -81.0514 North  Level Estimated
Fri 11:37:00 AM 24.7262 -81.0514 234° Southwest  Level Estimated
Fri 12:32:52 PM 25.3164 -80.2533 234° Southwest 126 145 1,700  Level Miami Center
Fri 12:33:11 PM 25.3272 -80.2472 27° Northeast 120 138 1,700  Level Miami Center
Fri 12:34:12 PM 25.3617 -80.2317 22° Northeast 127 146 1,700  Level Miami Center
Fri 12:35:19 PM 25.3983 -80.2183 18° North 128 147 1,700  Level Miami Center
Fri 12:36:14 PM 25.4283 -80.2044 23° Northeast 126 145 1,700  Level Miami Center
Fri 12:37:14 PM 25.4606 -80.1931 18° North 125 144 1,700  Level Miami Center
Fri 12:38:15 PM 25.4947 -80.1839 14° North 129 148 1,700  Level Miami Center
Fri 12:39:16 PM 25.5306 -80.1775 North 126 145 1,700 47 Level Miami Center
Fri 12:40:23 PM 25.5689 -80.1689 11° North 122 140 1,800 49 Climbing Miami Center
Fri 12:41:18 PM 25.6006 -80.1644 North 124 143 1,800  Level Miami Center
Fri 12:42:19 PM 25.6325 -80.1553 15° North 122 140 1,800 -98 Level Miami Center
Fri 12:43:20 PM 25.6667 -80.1464 13° North 121 139 1,600 -148 Descending Miami Center
Fri 12:44:21 PM 25.7008 -80.1372 14° North 124 143 1,500 -98 Descending Miami Center
Fri 12:45:22 PM 25.7350 -80.1261 16° North 126 145 1,400  Descending Miami Center
Fri 12:46:23 PM 25.7708 -80.1194 10° North 124 143 1,500 49 Climbing Miami Center
Fri 12:47:24 PM 25.8050 -80.1128 10° North 130 150 1,500 -49 Level Miami Center
Fri 12:48:25 PM 25.8389 -80.1039 13° North 127 146 1,400  Descending Miami Center
Fri 12:49:27 PM 25.8728 -80.0972 10° North 124 143 1,500 98 Climbing Miami Center
Fri 12:50:28 PM 25.9031 -80.0833 22° Northeast 115 132 1,600 246 Climbing Miami Center
Fri 12:51:29 PM 25.9347 -80.0786 North 121 139 2,000 -148 Climbing Miami Center
Fri 12:52:30 PM 25.9700 -80.0858 350° North 122 140 1,300 -656 Descending Miami Center
Fri 12:53:37 PM 26.0025 -80.1022 336° Northwest 131 151 600 -328 Descending Miami Center
Fri 12:54:38 PM 26.0356 -80.1072 352° North 126 145 600 49 Level Miami Center
Fri 12:55:39 PM 26.0717 -80.1006 North 120 138 700  Climbing Miami Center
Fri 12:56:40 PM 26.1053 -80.0986 North 121 139 600 -52 Descending Miami Center
Fri 12:57:35 PM 26.1369 -80.0964 North 122 140 600  Level Miami Center
Fri 12:58:36 PM 26.1706 -80.0942 North 123 142 600  Level Miami Center
Fri 12:59:38 PM 26.2064 -80.0900 North 143 165 600 146 Level Miami Center
Fri 01:00:39 PM 26.2383 -80.0808 14° North 118 136 900 246 Climbing Miami Center
Fri 01:01:40 PM 26.2739 -80.0789 North 125 144 1,100 148 Climbing Miami Center
Fri 01:02:41 PM 26.3067 -80.0928 339° North 125 144 1,200 -148 Climbing Miami Center
Fri 01:03:42 PM 26.3350 -80.1089 333° Northwest 105 121 800 -246 Descending Miami Center
Fri 01:04:43 PM 26.3572 -80.1222 332° Northwest 88 101 700 -98 Descending Miami Center

Login

Don't have an account? Register now (free) for customized features, flight alerts, and more!